createdAt,value
2023-03-12T00:00:12.045Z,13.63
2023-03-12T00:02:59.316Z,15.40
2023-03-12T00:05:27.209Z,17.23
2023-03-12T00:07:54.426Z,21.45
2023-03-12T00:10:22.013Z,22.65
2023-03-12T00:12:49.196Z,16.67
2023-03-12T00:15:16.860Z,24.15
2023-03-12T00:17:44.156Z,45.70
2023-03-12T00:20:12.395Z,29.75
2023-03-12T00:22:39.996Z,27.13
2023-03-12T00:25:12.028Z,21.52
2023-03-12T00:27:39.927Z,30.27
2023-03-12T00:30:11.098Z,22.95
2023-03-12T00:32:38.525Z,24.67
2023-03-12T00:35:07.139Z,16.55
2023-03-12T00:37:34.328Z,15.52
2023-03-12T00:40:02.532Z,16.35
2023-03-12T00:42:29.689Z,10.77
2023-03-12T00:44:57.196Z,12.25
2023-03-12T00:47:24.489Z,11.25
2023-03-12T00:49:51.951Z,12.40
2023-03-12T00:52:19.277Z,11.95
2023-03-12T00:54:46.722Z,13.02
2023-03-12T00:57:13.959Z,10.65
2023-03-12T00:59:42.386Z,9.65
2023-03-12T01:02:09.765Z,14.98
2023-03-12T01:04:37.302Z,9.25
2023-03-12T01:07:04.606Z,13.82
2023-03-12T01:09:32.200Z,12.63
2023-03-12T01:11:59.380Z,15.80
2023-03-12T01:14:26.865Z,14.55
2023-03-12T01:16:54.442Z,15.27
2023-03-12T01:19:21.960Z,21.05
2023-03-12T01:21:49.148Z,22.67
2023-03-12T01:24:16.809Z,17.60
2023-03-12T01:26:44.816Z,19.85
2023-03-12T01:29:12.220Z,23.05
2023-03-12T01:31:39.426Z,23.65
2023-03-12T01:34:06.881Z,21.55
2023-03-12T01:36:34.127Z,19.60
2023-03-12T01:39:01.955Z,18.15
2023-03-12T01:41:32.659Z,18.02
2023-03-12T01:44:03.898Z,14.43
2023-03-12T01:46:38.724Z,15.30
2023-03-12T01:49:18.112Z,20.38
2023-03-12T01:52:16.914Z,23.45
2023-03-12T01:54:57.762Z,23.45
2023-03-12T01:57:35.069Z,21.00
2023-03-12T02:00:08.286Z,22.83
2023-03-12T02:02:44.345Z,16.10
2023-03-12T02:05:15.875Z,20.93
2023-03-12T02:07:43.040Z,21.30
2023-03-12T02:10:11.911Z,20.27
2023-03-12T02:12:39.323Z,18.98
2023-03-12T02:15:07.612Z,17.38
2023-03-12T02:17:36.601Z,17.98
2023-03-12T02:20:23.874Z,16.58
2023-03-12T02:23:04.245Z,14.75
2023-03-12T02:25:57.397Z,14.23
2023-03-12T02:28:28.957Z,12.88
2023-03-12T02:31:03.698Z,16.30
2023-03-12T02:33:31.872Z,14.87
2023-03-12T02:35:59.412Z,16.27
2023-03-12T02:38:38.448Z,10.73
2023-03-12T02:41:30.245Z,18.02
2023-03-12T02:44:03.180Z,15.88
2023-03-12T02:46:34.384Z,14.90
2023-03-12T02:49:02.290Z,12.43
2023-03-12T02:51:29.907Z,10.13
2023-03-12T02:53:57.163Z,9.48
2023-03-12T02:56:27.000Z,12.27
2023-03-12T02:58:54.412Z,14.68
2023-03-12T03:01:23.048Z,12.65
2023-03-12T03:03:51.178Z,13.25
2023-03-12T03:06:18.737Z,13.23
2023-03-12T03:08:46.632Z,13.43
2023-03-12T03:11:13.988Z,17.63
2023-03-12T03:13:41.777Z,16.85
2023-03-12T03:16:09.514Z,18.50
2023-03-12T03:18:37.008Z,22.15
2023-03-12T03:21:07.229Z,19.92
2023-03-12T03:26:38.103Z,14.40
2023-03-12T03:29:05.757Z,14.30
2023-03-12T03:31:33.094Z,18.77
2023-03-12T03:34:00.712Z,18.45
2023-03-12T03:36:28.050Z,15.35
2023-03-12T03:41:33.235Z,16.88
2023-03-12T03:44:00.979Z,17.98
2023-03-12T03:46:31.580Z,20.42
2023-03-12T03:49:03.798Z,17.23
2023-03-12T03:51:32.844Z,16.88
2023-03-12T03:54:05.584Z,23.90
2023-03-12T03:56:33.185Z,18.42
2023-03-12T03:59:03.250Z,20.70
2023-03-12T04:01:32.092Z,17.25
2023-03-12T04:04:01.372Z,18.02
2023-03-12T04:06:30.383Z,15.98
2023-03-12T04:08:59.017Z,20.70
2023-03-12T04:11:27.755Z,19.52
2023-03-12T04:13:58.026Z,28.05
2023-03-12T04:16:29.243Z,23.52
2023-03-12T04:18:58.069Z,19.88
2023-03-12T04:21:26.208Z,23.10
2023-03-12T04:23:53.867Z,33.15
2023-03-12T04:26:24.827Z,40.28
2023-03-12T04:28:54.242Z,45.33
2023-03-12T04:31:21.588Z,52.30
2023-03-12T04:33:51.213Z,39.58
2023-03-12T04:36:20.795Z,37.40
2023-03-12T04:38:49.948Z,32.70
2023-03-12T04:41:19.998Z,32.45
2023-03-12T04:43:59.253Z,42.40
2023-03-12T04:46:26.998Z,39.85
2023-03-12T04:48:54.496Z,29.38
2023-03-12T04:51:22.363Z,40.10
2023-03-12T04:53:50.172Z,50.35
2023-03-12T04:56:17.456Z,38.50
2023-03-12T04:58:46.694Z,36.20
2023-03-12T05:01:30.544Z,46.38
2023-03-12T05:03:58.318Z,33.58
2023-03-12T05:06:25.909Z,28.08
2023-03-12T05:08:54.311Z,24.23
2023-03-12T05:11:21.936Z,30.85
2023-03-12T05:13:49.570Z,29.40
2023-03-12T05:16:17.430Z,28.92
2023-03-12T05:18:47.496Z,27.75
2023-03-12T05:21:19.027Z,32.67
2023-03-12T05:23:47.300Z,33.58
2023-03-12T05:26:22.294Z,31.67
2023-03-12T05:28:52.299Z,38.60
2023-03-12T05:31:21.306Z,34.17
2023-03-12T05:33:52.695Z,35.13
2023-03-12T05:36:21.828Z,37.63
2023-03-12T05:38:49.809Z,38.88
2023-03-12T05:41:28.494Z,33.03
2023-03-12T05:44:00.289Z,43.00
2023-03-12T05:46:29.213Z,56.90
2023-03-12T05:48:57.064Z,69.30
2023-03-12T05:51:24.496Z,51.63
2023-03-12T05:53:52.366Z,59.60
2023-03-12T05:56:20.137Z,48.65
2023-03-12T05:58:50.129Z,50.72
2023-03-12T06:01:26.027Z,53.85
2023-03-12T06:03:56.171Z,46.72
2023-03-12T06:06:25.286Z,43.03
2023-03-12T06:08:52.918Z,39.05
2023-03-12T06:11:20.129Z,38.30
2023-03-12T06:13:48.640Z,42.58
2023-03-12T06:16:17.952Z,43.65
2023-03-12T06:18:46.363Z,41.67
2023-03-12T06:21:21.334Z,44.25
2023-03-12T06:23:49.954Z,47.53
2023-03-12T06:26:31.116Z,32.63
2023-03-12T06:28:58.741Z,29.40
2023-03-12T06:31:26.021Z,33.22
2023-03-12T06:33:54.025Z,33.15
2023-03-12T06:36:21.545Z,42.95
2023-03-12T06:38:49.082Z,36.05
2023-03-12T06:41:18.071Z,33.75
2023-03-12T06:43:46.885Z,35.42
2023-03-12T06:46:17.479Z,33.08
2023-03-12T06:48:46.757Z,42.20
2023-03-12T06:51:16.275Z,44.38
2023-03-12T06:53:45.404Z,54.92
2023-03-12T06:56:13.613Z,61.03
2023-03-12T06:58:41.724Z,51.55
2023-03-12T07:01:09.106Z,47.15
2023-03-12T07:03:37.140Z,45.00
2023-03-12T07:06:04.808Z,35.85
2023-03-12T07:08:32.736Z,36.83
2023-03-12T07:11:01.736Z,27.80
2023-03-12T07:13:30.497Z,28.63
2023-03-12T07:15:58.093Z,20.95
2023-03-12T07:18:25.979Z,13.68
2023-03-12T07:20:53.896Z,19.55
2023-03-12T07:23:22.925Z,16.73
2023-03-12T07:25:50.734Z,16.73
2023-03-12T07:28:20.011Z,11.00
2023-03-12T07:30:50.879Z,10.32
2023-03-12T07:33:21.640Z,9.60
2023-03-12T07:35:51.710Z,9.63
2023-03-12T07:38:19.973Z,10.45
2023-03-12T07:40:54.421Z,8.90
2023-03-12T07:43:23.276Z,9.82
2023-03-12T07:45:53.941Z,10.50
2023-03-12T07:48:21.913Z,11.82
2023-03-12T07:50:49.559Z,10.18
2023-03-12T07:53:18.459Z,10.23
2023-03-12T07:55:47.136Z,9.13
2023-03-12T07:58:17.079Z,8.23
2023-03-12T08:00:45.164Z,11.23
2023-03-12T08:03:14.133Z,7.53
2023-03-12T08:05:42.126Z,10.38
2023-03-12T08:08:10.362Z,10.45
2023-03-12T08:10:38.065Z,10.98
2023-03-12T08:13:06.052Z,9.10
2023-03-12T08:15:33.720Z,9.05
2023-03-12T08:18:01.734Z,10.30
2023-03-12T08:20:29.221Z,24.17
2023-03-12T08:22:57.157Z,44.53
2023-03-12T08:25:25.063Z,39.25
2023-03-12T08:27:53.266Z,9.32
2023-03-12T08:30:21.129Z,13.60
2023-03-12T08:32:49.290Z,6.43
2023-03-12T08:35:16.905Z,9.65
2023-03-12T08:37:44.885Z,6.90
2023-03-12T08:40:13.558Z,12.05
2023-03-12T08:42:43.038Z,12.13
2023-03-12T08:45:12.174Z,10.35
2023-03-12T08:47:42.042Z,7.10
2023-03-12T08:50:12.347Z,13.38
2023-03-12T08:52:40.221Z,8.70
2023-03-12T08:55:07.901Z,7.72
2023-03-12T08:57:35.615Z,11.68
2023-03-12T09:00:06.158Z,7.30
2023-03-12T09:02:34.095Z,6.82
2023-03-12T09:05:01.463Z,5.90
2023-03-12T09:07:31.579Z,7.32
2023-03-12T09:09:58.987Z,3.13
2023-03-12T09:12:26.702Z,7.10
2023-03-12T09:15:09.237Z,10.23
2023-03-12T09:17:38.196Z,6.57
2023-03-12T09:20:10.057Z,5.43
2023-03-12T09:22:37.834Z,6.53
2023-03-12T09:25:06.687Z,4.75
2023-03-12T09:27:43.622Z,6.20
2023-03-12T09:30:17.647Z,5.05
2023-03-12T09:32:46.113Z,7.03
2023-03-12T09:35:15.684Z,9.77
2023-03-12T09:37:43.545Z,5.90
2023-03-12T09:40:23.064Z,8.55
2023-03-12T09:43:04.659Z,8.00
2023-03-12T09:45:38.358Z,3.05
2023-03-12T09:48:13.737Z,5.38
2023-03-12T09:50:48.016Z,7.03
2023-03-12T09:53:31.540Z,6.65
2023-03-12T09:56:02.456Z,3.65
2023-03-12T09:58:35.943Z,5.90
2023-03-12T10:01:06.147Z,8.57
2023-03-12T10:03:55.925Z,6.60
2023-03-12T10:07:01.055Z,4.30
2023-03-12T10:09:35.089Z,12.48
2023-03-12T10:12:08.325Z,7.00
2023-03-12T10:14:42.109Z,6.47
2023-03-12T10:17:39.107Z,2.97
2023-03-12T10:20:44.135Z,6.85
2023-03-12T10:23:31.028Z,5.07
2023-03-12T10:26:34.234Z,3.78
2023-03-12T10:29:06.762Z,4.38
2023-03-12T10:31:48.283Z,3.75
2023-03-12T10:34:40.402Z,2.58
2023-03-12T10:37:21.306Z,6.28
2023-03-12T10:39:49.577Z,7.22
2023-03-12T10:42:24.056Z,6.25
2023-03-12T10:44:54.808Z,3.60
2023-03-12T10:47:41.261Z,4.97
2023-03-12T10:50:22.706Z,5.53
2023-03-12T10:52:53.148Z,3.33
2023-03-12T10:55:32.162Z,4.13
2023-03-12T10:57:59.831Z,4.55
2023-03-12T11:00:29.901Z,5.30
2023-03-12T11:03:20.716Z,3.22
2023-03-12T11:05:59.681Z,2.55
2023-03-12T11:11:37.322Z,7.55
2023-03-12T11:14:29.568Z,2.63
2023-03-12T11:16:57.550Z,3.50
2023-03-12T11:19:33.939Z,1.67
2023-03-12T11:24:30.865Z,7.22
2023-03-12T11:27:18.210Z,2.30
2023-03-12T11:29:50.378Z,8.00
2023-03-12T11:32:17.732Z,8.20
2023-03-12T11:34:49.930Z,5.32
2023-03-12T11:37:41.645Z,5.15
2023-03-12T11:40:21.483Z,1.85
2023-03-12T11:43:32.545Z,4.15
2023-03-12T11:46:26.410Z,2.42
2023-03-12T11:49:04.111Z,4.10
2023-03-12T11:51:55.661Z,5.57
2023-03-12T11:54:26.143Z,3.80
2023-03-12T11:56:57.586Z,2.58
2023-03-12T11:59:43.679Z,3.83
2023-03-12T12:02:32.680Z,1.27
2023-03-12T12:05:25.634Z,4.80
2023-03-12T12:08:21.445Z,2.10
2023-03-12T12:11:14.442Z,8.05
2023-03-12T12:14:03.702Z,4.05
2023-03-12T12:17:09.565Z,5.78
2023-03-12T12:19:49.515Z,5.57
2023-03-12T12:22:29.891Z,7.78
2023-03-12T12:25:16.450Z,3.10
2023-03-12T12:28:14.588Z,2.05
2023-03-12T12:30:53.602Z,1.30
2023-03-12T12:33:27.705Z,1.15
2023-03-12T12:35:55.996Z,1.63
2023-03-12T12:38:35.467Z,3.45
2023-03-12T12:41:32.884Z,2.67
2023-03-12T12:44:07.184Z,5.68
2023-03-12T12:46:38.034Z,1.75
2023-03-12T12:49:22.785Z,3.22
2023-03-12T12:51:59.157Z,2.40
2023-03-12T12:57:23.431Z,4.45
2023-03-12T13:00:15.232Z,2.45
2023-03-12T13:02:48.080Z,1.13
2023-03-12T13:05:40.590Z,1.95
2023-03-12T13:08:11.537Z,3.22
2023-03-12T13:10:52.921Z,2.00
2023-03-12T13:13:30.448Z,1.55
2023-03-12T13:16:33.488Z,2.60
2023-03-12T13:19:16.275Z,2.40
2023-03-12T13:21:54.587Z,1.67
2023-03-12T13:24:30.280Z,0.85
2023-03-12T13:27:19.370Z,1.27
2023-03-12T13:29:47.340Z,0.73
2023-03-12T13:32:36.604Z,1.17
2023-03-12T13:35:27.403Z,1.55
2023-03-12T13:37:54.590Z,2.30
2023-03-12T13:41:02.408Z,1.20
2023-03-12T13:43:49.641Z,1.48
2023-03-12T13:46:40.666Z,1.48
2023-03-12T13:49:14.201Z,1.25
2023-03-12T13:51:47.722Z,1.13
2023-03-12T13:54:19.002Z,2.78
2023-03-12T13:56:57.006Z,1.58
2023-03-12T13:59:26.538Z,3.10
2023-03-12T14:01:59.342Z,3.28
2023-03-12T14:04:41.021Z,2.65
2023-03-12T14:07:44.559Z,1.75
2023-03-12T14:10:25.909Z,3.15
2023-03-12T14:13:13.882Z,3.03
2023-03-12T14:16:17.983Z,1.42
2023-03-12T14:18:46.608Z,1.85
2023-03-12T14:21:17.294Z,2.33
2023-03-12T14:23:56.408Z,2.10
2023-03-12T14:26:27.831Z,1.27
2023-03-12T14:29:02.864Z,2.80
2023-03-12T14:31:31.901Z,1.20
2023-03-12T14:34:17.945Z,0.75
2023-03-12T14:36:47.872Z,1.40
2023-03-12T14:39:33.734Z,2.20
2023-03-12T14:42:08.020Z,2.15
2023-03-12T14:44:39.654Z,0.77
2023-03-12T14:47:17.443Z,1.98
2023-03-12T14:49:46.954Z,4.38
2023-03-12T14:52:20.962Z,1.35
2023-03-12T14:55:00.916Z,1.85
2023-03-12T14:57:28.461Z,6.55
2023-03-12T14:59:58.266Z,6.25
2023-03-12T15:02:27.275Z,4.72
2023-03-12T15:04:57.767Z,2.75
2023-03-12T15:07:33.866Z,1.85
2023-03-12T15:10:06.337Z,3.38
2023-03-12T15:12:39.215Z,3.10
2023-03-12T15:15:10.035Z,2.72
2023-03-12T15:17:37.875Z,2.15
2023-03-12T15:20:09.615Z,2.53
2023-03-12T15:22:38.011Z,5.05
2023-03-12T15:25:25.434Z,3.65
2023-03-12T15:28:11.246Z,3.67
2023-03-12T15:30:40.145Z,3.17
2023-03-12T15:33:12.651Z,3.60
2023-03-12T15:36:02.750Z,4.10
2023-03-12T15:38:34.180Z,3.25
2023-03-12T15:41:08.636Z,6.22
2023-03-12T15:43:37.884Z,3.45
2023-03-12T15:46:07.346Z,3.78
2023-03-12T15:48:41.584Z,4.78
2023-03-12T15:51:28.840Z,6.20
2023-03-12T15:54:05.048Z,8.38
2023-03-12T15:56:34.878Z,6.35
2023-03-12T15:59:23.789Z,5.68
2023-03-12T16:01:54.047Z,10.52
2023-03-12T16:04:23.256Z,8.20
2023-03-12T16:06:53.616Z,10.18
2023-03-12T16:09:29.047Z,9.38
2023-03-12T16:11:57.251Z,9.93
2023-03-12T16:14:29.525Z,8.60
2023-03-12T16:16:57.225Z,10.23
2023-03-12T16:19:29.331Z,4.78
2023-03-12T16:21:57.152Z,6.68
2023-03-12T16:24:24.384Z,4.68
2023-03-12T16:26:57.929Z,5.22
2023-03-12T16:29:37.405Z,5.40
2023-03-12T16:32:15.333Z,11.05
2023-03-12T16:34:45.576Z,10.00
2023-03-12T16:37:13.895Z,12.52
2023-03-12T16:39:44.409Z,15.82
2023-03-12T16:42:21.380Z,12.35
2023-03-12T16:44:50.051Z,11.65
2023-03-12T16:47:18.929Z,8.27
2023-03-12T16:49:47.006Z,6.90
2023-03-12T16:52:22.975Z,12.10
2023-03-12T16:54:51.669Z,13.90
2023-03-12T16:57:44.452Z,9.30
2023-03-12T17:00:19.723Z,10.95
2023-03-12T17:02:48.848Z,15.77
2023-03-12T17:05:16.665Z,8.23
2023-03-12T17:07:44.431Z,9.23
2023-03-12T17:10:14.939Z,15.98
2023-03-12T17:12:42.979Z,15.63
2023-03-12T17:15:30.769Z,14.95
2023-03-12T17:18:03.364Z,19.73
2023-03-12T17:20:36.251Z,19.08
2023-03-12T17:23:04.715Z,19.15
2023-03-12T17:25:34.965Z,16.90
2023-03-12T17:28:03.335Z,19.23
2023-03-12T17:30:31.479Z,27.77
2023-03-12T17:33:08.519Z,37.70
2023-03-12T17:35:35.983Z,38.17
2023-03-12T17:38:04.269Z,33.92
2023-03-12T17:40:32.172Z,23.42
2023-03-12T17:42:59.905Z,30.08
2023-03-12T17:45:27.855Z,26.17
2023-03-12T17:47:55.635Z,62.58
2023-03-12T17:50:22.964Z,75.30
2023-03-12T17:52:51.534Z,69.55
2023-03-12T17:55:18.983Z,56.83
2023-03-12T17:57:46.746Z,70.57
2023-03-12T18:00:14.671Z,69.85
2023-03-12T18:02:43.436Z,57.38
2023-03-12T18:05:12.412Z,35.95
2023-03-12T18:07:40.254Z,73.55
2023-03-12T18:10:11.284Z,69.97
2023-03-12T18:12:40.351Z,98.78
2023-03-12T18:15:09.379Z,83.68
2023-03-12T18:17:36.976Z,58.13
2023-03-12T18:20:09.861Z,45.70
2023-03-12T18:22:42.693Z,42.30
2023-03-12T18:25:14.152Z,39.90
2023-03-12T18:27:41.997Z,47.95
2023-03-12T18:30:12.796Z,53.97
2023-03-12T18:32:41.464Z,42.75
2023-03-12T18:35:09.474Z,37.67
2023-03-12T18:37:43.680Z,85.90
2023-03-12T18:40:17.160Z,46.83
2023-03-12T18:42:44.818Z,63.58
2023-03-12T18:45:13.109Z,84.07
2023-03-12T18:47:42.231Z,109.65
2023-03-12T18:50:10.664Z,108.70
2023-03-12T18:52:44.440Z,96.47
2023-03-12T18:55:15.561Z,86.00
2023-03-12T18:57:44.240Z,137.85
2023-03-12T19:00:14.831Z,155.55
2023-03-12T19:02:42.758Z,225.30
2023-03-12T19:05:13.610Z,250.50
2023-03-12T19:07:41.252Z,316.00
2023-03-12T19:10:09.902Z,301.83
2023-03-12T19:12:50.880Z,297.33
2023-03-12T19:15:21.996Z,253.95
2023-03-12T19:17:50.230Z,218.30
2023-03-12T19:20:17.868Z,187.27
2023-03-12T19:22:45.753Z,198.88
2023-03-12T19:25:13.248Z,184.90
2023-03-12T19:27:41.021Z,197.18
2023-03-12T19:30:09.808Z,169.98
2023-03-12T19:32:43.616Z,185.82
2023-03-12T19:35:13.317Z,181.75
2023-03-12T19:37:41.865Z,178.90
2023-03-12T19:40:10.981Z,340.83
2023-03-12T19:42:39.066Z,317.90
2023-03-12T19:45:06.942Z,289.13
2023-03-12T19:47:34.658Z,289.52
2023-03-12T19:50:02.398Z,259.95
2023-03-12T19:52:30.291Z,254.90
2023-03-12T19:55:04.799Z,229.63
2023-03-12T19:57:34.232Z,217.13
2023-03-12T20:00:01.830Z,212.57
2023-03-12T20:02:32.148Z,210.98
2023-03-12T20:04:59.584Z,194.57
2023-03-12T20:07:27.441Z,157.70
2023-03-12T20:10:00.858Z,201.25
2023-03-12T20:12:28.733Z,193.27
2023-03-12T20:14:56.168Z,221.00
2023-03-12T20:17:23.886Z,228.35
2023-03-12T20:19:51.225Z,178.07
2023-03-12T20:22:19.027Z,176.68
2023-03-12T20:24:46.524Z,146.35
2023-03-12T20:27:14.446Z,144.68
2023-03-12T20:29:43.604Z,132.98
2023-03-12T20:32:11.433Z,151.73
2023-03-12T20:34:38.894Z,181.05
2023-03-12T20:37:06.618Z,219.38
2023-03-12T20:39:33.992Z,208.30
2023-03-12T20:42:01.793Z,199.18
2023-03-12T20:44:29.127Z,197.95
2023-03-12T20:46:57.676Z,224.63
2023-03-12T20:49:25.130Z,180.70
2023-03-12T20:51:52.877Z,129.45
2023-03-12T20:54:20.267Z,128.00
2023-03-12T20:56:48.068Z,138.32
2023-03-12T20:59:18.548Z,129.57
2023-03-12T21:01:46.268Z,157.95
2023-03-12T21:04:13.558Z,159.82
2023-03-12T21:06:41.560Z,125.80
2023-03-12T21:09:09.009Z,156.18
2023-03-12T21:11:37.071Z,189.65
2023-03-12T21:14:04.418Z,179.27
2023-03-12T21:16:32.270Z,150.80
2023-03-12T21:18:59.642Z,152.93
2023-03-12T21:21:27.270Z,200.82
2023-03-12T21:23:54.663Z,196.15
2023-03-12T21:26:22.331Z,175.40
2023-03-12T21:28:49.812Z,164.10
2023-03-12T21:31:18.217Z,171.95
2023-03-12T21:33:45.755Z,158.45
2023-03-12T21:36:14.590Z,138.45
2023-03-12T21:38:45.747Z,155.98
2023-03-12T21:41:15.749Z,206.50
2023-03-12T21:43:44.394Z,266.67
2023-03-12T21:46:14.870Z,256.42
2023-03-12T21:48:45.187Z,143.57
2023-03-12T21:51:15.111Z,21.42
2023-03-12T21:53:42.573Z,17.17
2023-03-12T21:56:10.780Z,26.80
2023-03-12T21:58:38.513Z,31.13
2023-03-12T22:01:13.960Z,9.50
2023-03-12T22:03:43.318Z,12.03
2023-03-12T22:06:12.264Z,16.33
2023-03-12T22:08:40.346Z,5.45
2023-03-12T22:11:09.377Z,10.38
2023-03-12T22:13:36.785Z,4.05
2023-03-12T22:16:08.378Z,4.00
2023-03-12T22:18:40.998Z,7.88
2023-03-12T22:21:13.309Z,7.43
2023-03-12T22:23:40.596Z,5.47
2023-03-12T22:26:08.347Z,5.57
2023-03-12T22:28:36.073Z,10.23
2023-03-12T22:31:06.636Z,8.23
2023-03-12T22:33:37.930Z,4.93
2023-03-12T22:36:11.021Z,4.85
2023-03-12T22:38:39.701Z,7.03
2023-03-12T22:41:22.843Z,6.35
2023-03-12T22:43:52.403Z,6.20
2023-03-12T22:46:21.388Z,8.30
2023-03-12T22:48:53.557Z,4.75
2023-03-12T22:51:21.537Z,9.77
2023-03-12T22:53:48.890Z,7.35
2023-03-12T22:56:17.257Z,7.28
2023-03-12T22:58:44.758Z,5.28
2023-03-12T23:01:17.717Z,3.85
2023-03-12T23:03:46.154Z,9.25
2023-03-12T23:06:21.943Z,8.40
2023-03-12T23:08:49.814Z,9.85
2023-03-12T23:11:19.162Z,9.38
2023-03-12T23:13:48.323Z,5.65
2023-03-12T23:16:19.178Z,5.22
2023-03-12T23:18:47.213Z,5.63
2023-03-12T23:21:20.316Z,9.27
2023-03-12T23:23:48.491Z,6.18
2023-03-12T23:26:26.808Z,10.73
2023-03-12T23:28:55.903Z,5.35
2023-03-12T23:31:23.775Z,7.20
2023-03-12T23:33:51.209Z,7.75
2023-03-12T23:36:21.105Z,7.20
2023-03-12T23:38:49.915Z,5.20
2023-03-12T23:41:20.210Z,5.72
2023-03-12T23:43:47.766Z,6.72
2023-03-12T23:46:19.212Z,7.40
2023-03-12T23:48:47.048Z,8.77
2023-03-12T23:51:20.193Z,4.65
2023-03-12T23:53:49.725Z,6.82
2023-03-12T23:56:22.959Z,6.57
2023-03-12T23:58:51.410Z,10.63
